Time;durP1;ratioP1;P1;durP2;ratioP2;P2;SDS_P1;SDS_P2;PMS_P1;PMS_P2;Temp;Humidity;BMP_temperature;BMP_pressure;BME280_temperature;BME280_humidity;BME280_pressure;Samples;Min_cycle;Max_cycle;Signal;HPM_P1;HPM_P2
2022/01/12 00:01:43;;;;;;;26.77;16.57;;;3.40;88.30;;;;;;5053458;28;20663;-86
2022/01/12 00:04:11;;;;;;;24.43;15.03;;;3.40;88.40;;;;;;5053907;28;20163;-88
2022/01/12 00:06:37;;;;;;;27.57;17.60;;;3.30;88.40;;;;;;5057937;28;20248;-86
2022/01/12 00:09:07;;;;;;;31.30;17.43;;;3.30;88.50;;;;;;5058789;28;20178;-86
2022/01/12 00:11:35;;;;;;;34.87;18.50;;;3.30;88.30;;;;;;5060194;28;20592;-86
2022/01/12 00:14:00;;;;;;;31.93;17.17;;;3.30;88.40;;;;;;5059887;28;20168;-86
2022/01/12 00:16:26;;;;;;;32.03;19.17;;;3.30;88.70;;;;;;5060010;28;20191;-86
2022/01/12 00:18:52;;;;;;;31.80;17.57;;;3.30;89.20;;;;;;5059782;28;20192;-87
2022/01/12 00:21:17;;;;;;;24.63;16.97;;;3.30;89.40;;;;;;5058697;28;20665;-86
2022/01/12 00:23:43;;;;;;;37.10;18.43;;;3.30;89.40;;;;;;5059886;28;20630;-86
2022/01/12 00:26:12;;;;;;;32.70;19.93;;;3.30;89.90;;;;;;5059891;28;20175;-85
2022/01/12 00:34:10;;;;;;;35.80;20.50;;;3.20;90.70;;;;;;5060390;28;20193;-87
2022/01/12 00:36:37;;;;;;;31.83;18.73;;;3.20;91.00;;;;;;5059581;28;20603;-87
2022/01/12 00:39:05;;;;;;;38.13;23.10;;;3.10;91.30;;;;;;5059955;28;20179;-86
2022/01/12 00:41:31;;;;;;;43.43;24.73;;;3.10;91.50;;;;;;5059752;28;20183;-87
2022/01/12 00:44:00;;;;;;;37.00;20.77;;;3.10;91.50;;;;;;5059819;28;20168;-87
2022/01/12 00:46:30;;;;;;;40.57;23.37;;;3.20;91.50;;;;;;5059619;28;20245;-86
2022/01/12 00:48:58;;;;;;;41.03;23.20;;;3.10;91.60;;;;;;5060465;28;20182;-86
2022/01/12 00:51:28;;;;;;;31.03;22.60;;;3.10;91.70;;;;;;5060158;28;20506;-86
2022/01/12 00:53:57;;;;;;;47.47;22.90;;;3.10;91.80;;;;;;5058654;28;20175;-86
2022/01/12 00:56:23;;;;;;;47.23;25.97;;;3.10;91.90;;;;;;5058607;28;20671;-86
2022/01/12 00:58:49;;;;;;;48.53;26.40;;;3.10;92.00;;;;;;5059860;28;20196;-86
2022/01/12 01:01:16;;;;;;;50.67;25.43;;;3.10;92.00;;;;;;5058934;28;20176;-86
2022/01/12 01:03:41;;;;;;;52.53;25.53;;;3.10;92.20;;;;;;5058678;28;20195;-87
2022/01/12 01:06:09;;;;;;;50.33;26.80;;;3.00;92.20;;;;;;5058846;28;20192;-86
2022/01/12 01:08:34;;;;;;;37.63;20.47;;;3.00;92.30;;;;;;5060340;28;20172;-87
2022/01/12 01:11:00;;;;;;;53.97;28.30;;;3.00;92.50;;;;;;5060169;28;20175;-87
2022/01/12 01:13:34;;;;;;;44.33;26.67;;;3.00;92.50;;;;;;5060244;28;20172;-86
2022/01/12 01:16:14;;;;;;;45.30;27.37;;;3.00;92.60;;;;;;5060121;28;20161;-86
2022/01/12 01:26:54;;;;;;;60.17;29.67;;;3.00;92.90;;;;;;5056733;28;20222;-86
2022/01/12 01:29:20;;;;;;;53.67;30.20;;;3.00;92.90;;;;;;5056693;28;20795;-87
2022/01/12 01:31:46;;;;;;;47.00;26.37;;;3.00;93.00;;;;;;5055411;28;20199;-86
2022/01/12 01:34:14;;;;;;;46.67;26.13;;;3.00;93.00;;;;;;5055395;28;20655;-86
2022/01/12 01:36:52;;;;;;;68.07;29.93;;;3.00;93.20;;;;;;5055158;28;20885;-87
2022/01/12 01:39:21;;;;;;;51.07;29.17;;;3.00;93.30;;;;;;5056461;28;20263;-87
2022/01/12 01:42:01;;;;;;;59.97;32.00;;;2.90;93.40;;;;;;5055387;28;20174;-87
2022/01/12 01:54:52;;;;;;;62.37;33.30;;;3.10;93.80;;;;;;5056365;28;20255;-88
2022/01/12 01:57:18;;;;;;;59.50;32.63;;;3.10;93.80;;;;;;5055510;28;20200;-88
2022/01/12 01:59:45;;;;;;;70.60;34.07;;;3.10;93.80;;;;;;5054491;28;20175;-86
2022/01/12 02:02:11;;;;;;;64.27;33.27;;;3.00;93.80;;;;;;5055671;28;20278;-87
2022/01/12 02:04:37;;;;;;;67.00;35.23;;;3.00;93.80;;;;;;5055443;28;20249;-87
2022/01/12 02:07:03;;;;;;;70.67;34.57;;;3.00;93.90;;;;;;5055226;28;20566;-87
2022/01/12 02:09:29;;;;;;;63.23;32.80;;;3.00;94.00;;;;;;5054226;28;20188;-87
2022/01/12 02:11:55;;;;;;;67.13;35.93;;;3.00;94.00;;;;;;5055727;28;20178;-87
2022/01/12 02:14:20;;;;;;;67.57;35.30;;;3.10;94.00;;;;;;5055607;28;20266;-87
2022/01/12 02:16:54;;;;;;;59.60;32.23;;;3.00;94.00;;;;;;5055621;28;20195;-86
2022/01/12 02:36:26;;;;;;;77.13;37.83;;;3.00;94.40;;;;;;5055227;28;20214;-86
2022/01/12 02:41:39;;;;;;;73.77;37.33;;;3.00;94.50;;;;;;5055436;28;20680;-87
2022/01/12 02:54:50;;;;;;;74.77;38.87;;;3.00;94.90;;;;;;5054720;28;20170;-87
2022/01/12 02:57:16;;;;;;;75.13;38.60;;;3.00;95.00;;;;;;5053484;28;20206;-86
2022/01/12 03:00:02;;;;;;;84.63;41.20;;;3.00;95.00;;;;;;5053493;28;20172;-86
2022/01/12 03:02:33;;;;;;;76.67;39.37;;;3.00;95.10;;;;;;5054632;28;20183;-87
2022/01/12 03:07:30;;;;;;;83.47;39.93;;;3.00;95.20;;;;;;5055376;28;20187;-88
2022/01/12 03:09:56;;;;;;;80.73;42.27;;;3.00;95.20;;;;;;5053276;28;20627;-87
2022/01/12 03:12:21;;;;;;;84.60;40.60;;;3.10;95.20;;;;;;5054679;28;20175;-87
2022/01/12 03:14:47;;;;;;;76.10;40.47;;;3.10;95.30;;;;;;5053432;28;20178;-88
2022/01/12 03:17:15;;;;;;;74.30;38.63;;;3.10;95.30;;;;;;5052867;28;20227;-87
2022/01/12 03:19:40;;;;;;;64.60;35.20;;;3.10;95.30;;;;;;5054703;28;20168;-86
2022/01/12 03:22:06;;;;;;;69.47;36.50;;;3.10;95.30;;;;;;5054578;28;20179;-88
2022/01/12 03:24:32;;;;;;;72.20;39.00;;;3.10;95.30;;;;;;5054395;28;20620;-87
2022/01/12 03:26:57;;;;;;;72.63;36.13;;;3.10;95.40;;;;;;5054338;28;20231;-87
2022/01/12 03:29:24;;;;;;;78.40;38.40;;;3.10;95.40;;;;;;5054437;28;20179;-89
2022/01/12 03:31:49;;;;;;;64.63;33.40;;;3.20;95.40;;;;;;5053150;28;20196;-87
2022/01/12 03:34:31;;;;;;;63.83;36.33;;;3.20;95.40;;;;;;5053159;28;20183;-86
2022/01/12 03:39:41;;;;;;;67.67;36.17;;;3.10;95.40;;;;;;5054685;28;20178;-86
2022/01/12 03:42:07;;;;;;;70.83;34.77;;;3.10;95.40;;;;;;5052262;28;20179;-88
2022/01/12 03:44:32;;;;;;;71.80;37.63;;;3.10;95.40;;;;;;5053991;28;20179;-88
2022/01/12 03:46:58;;;;;;;73.60;38.20;;;3.20;95.40;;;;;;5052409;28;20195;-88
2022/01/12 03:49:24;;;;;;;80.67;39.00;;;3.20;95.50;;;;;;5052584;28;20203;-88
2022/01/12 03:51:50;;;;;;;82.90;41.87;;;3.20;95.40;;;;;;5054033;28;20179;-87
2022/01/12 03:54:16;;;;;;;86.37;41.63;;;3.20;95.50;;;;;;5053989;28;20172;-88
2022/01/12 03:56:42;;;;;;;85.37;39.77;;;3.20;95.50;;;;;;5053639;28;20203;-88
2022/01/12 03:59:08;;;;;;;76.00;36.20;;;3.20;95.50;;;;;;5053574;28;20172;-87
2022/01/12 04:01:37;;;;;;;85.63;41.63;;;3.20;95.50;;;;;;5052191;28;20265;-87
2022/01/12 04:04:08;;;;;;;83.87;39.17;;;3.20;95.50;;;;;;5053641;28;20153;-88
2022/01/12 04:09:18;;;;;;;80.00;35.53;;;3.30;95.50;;;;;;5054308;28;20210;-88
2022/01/12 04:11:45;;;;;;;78.17;37.70;;;3.20;95.50;;;;;;5052203;28;20178;-87
2022/01/12 04:14:12;;;;;;;74.30;36.93;;;3.20;95.50;;;;;;5052099;28;20574;-88
2022/01/12 04:16:38;;;;;;;74.23;36.37;;;3.30;95.50;;;;;;5053514;28;20216;-87
2022/01/12 04:19:05;;;;;;;82.67;37.20;;;3.30;95.60;;;;;;5053296;28;20198;-88
2022/01/12 04:21:34;;;;;;;66.73;34.73;;;3.20;95.50;;;;;;5053493;28;20241;-88
2022/01/12 04:24:00;;;;;;;81.07;37.53;;;3.20;95.50;;;;;;5053653;28;20168;-88
2022/01/12 04:26:27;;;;;;;79.43;39.13;;;3.20;95.60;;;;;;5053692;28;20188;-87
2022/01/12 04:28:54;;;;;;;63.70;31.90;;;3.20;95.60;;;;;;5053819;28;20168;-87
2022/01/12 04:31:19;;;;;;;77.60;36.33;;;3.20;95.60;;;;;;5053759;28;20185;-87
2022/01/12 04:33:46;;;;;;;77.57;36.63;;;3.20;95.60;;;;;;5052272;28;20182;-87
2022/01/12 04:36:13;;;;;;;81.83;38.10;;;3.30;95.60;;;;;;5053442;28;20187;-87
2022/01/12 04:38:41;;;;;;;73.47;35.07;;;3.30;95.60;;;;;;5053253;28;20285;-87
2022/01/12 04:41:09;;;;;;;76.13;36.83;;;3.30;95.60;;;;;;5053135;28;20169;-88
2022/01/12 04:43:37;;;;;;;78.23;37.23;;;3.30;95.60;;;;;;5053002;28;20168;-88
2022/01/12 04:48:53;;;;;;;84.63;38.13;;;3.30;95.60;;;;;;5055261;28;20263;-88
2022/01/12 04:51:20;;;;;;;87.27;38.73;;;3.30;95.70;;;;;;5053737;28;20187;-87
2022/01/12 04:53:46;;;;;;;89.73;39.57;;;3.30;95.60;;;;;;5057214;28;20180;-87
2022/01/12 04:56:12;;;;;;;84.37;37.50;;;3.30;95.60;;;;;;5056835;28;20184;-88
2022/01/12 04:58:38;;;;;;;98.47;42.33;;;3.30;95.60;;;;;;5055649;28;20291;-87
2022/01/12 05:01:14;;;;;;;91.70;39.10;;;3.30;95.60;;;;;;5057128;28;20175;-87
2022/01/12 05:14:39;;;;;;;88.60;36.17;;;3.30;95.70;;;;;;5149657;22;20713;-87
2022/01/12 05:17:05;;;;;;;108.97;41.00;;;3.40;95.70;;;;;;5056090;28;20300;-87
2022/01/12 05:19:31;;;;;;;90.87;38.30;;;3.40;95.70;;;;;;5056332;28;20592;-87
2022/01/12 05:21:56;;;;;;;109.97;41.60;;;3.40;95.70;;;;;;5054825;28;20652;-88
2022/01/12 05:24:22;;;;;;;103.97;39.13;;;3.40;95.70;;;;;;5056180;28;20198;-87
2022/01/12 05:26:47;;;;;;;104.00;38.47;;;3.40;95.70;;;;;;5056059;28;20255;-87
2022/01/12 05:29:13;;;;;;;107.87;41.50;;;3.40;95.70;;;;;;5054782;28;20168;-88
2022/01/12 05:31:39;;;;;;;101.53;39.40;;;3.40;95.70;;;;;;5056173;28;20278;-85
2022/01/12 05:34:04;;;;;;;114.87;41.10;;;3.40;95.80;;;;;;5055700;28;20179;-84
2022/01/12 05:36:32;;;;;;;105.87;39.63;;;3.40;95.80;;;;;;5054235;28;20172;-85
2022/01/12 05:38:58;;;;;;;123.30;42.10;;;3.40;95.80;;;;;;5054660;28;20203;-85
2022/01/12 05:41:24;;;;;;;122.07;43.13;;;3.40;95.80;;;;;;5055587;28;20671;-85
2022/01/12 05:43:50;;;;;;;120.23;43.27;;;3.40;95.80;;;;;;5054388;28;20176;-85
2022/01/12 05:46:18;;;;;;;121.67;43.20;;;3.40;95.80;;;;;;5054331;28;20680;-85
2022/01/12 05:51:30;;;;;;;142.40;44.57;;;3.50;95.90;;;;;;5055768;28;20205;-85
2022/01/12 05:53:56;;;;;;;146.17;46.50;;;3.50;95.90;;;;;;5055406;28;20178;-85
2022/01/12 05:56:22;;;;;;;138.87;44.90;;;3.50;95.90;;;;;;5054153;28;20654;-85
2022/01/12 05:58:49;;;;;;;150.27;44.63;;;3.50;95.90;;;;;;5055283;28;20223;-85
2022/01/12 06:01:16;;;;;;;145.90;44.83;;;3.50;96.00;;;;;;5054066;28;20172;-85
2022/01/12 06:03:41;;;;;;;135.87;44.37;;;3.50;96.00;;;;;;5054445;28;20171;-85
2022/01/12 06:06:07;;;;;;;151.93;47.40;;;3.50;96.00;;;;;;5054241;28;20200;-85
2022/01/12 06:08:33;;;;;;;141.30;46.17;;;3.50;96.00;;;;;;5055177;28;20259;-86
2022/01/12 06:10:59;;;;;;;153.83;48.97;;;3.50;96.00;;;;;;5053798;28;20560;-85
2022/01/12 06:13:24;;;;;;;161.83;48.23;;;3.60;96.00;;;;;;5055422;28;20173;-86
2022/01/12 06:15:50;;;;;;;156.30;45.53;;;3.60;96.00;;;;;;5053704;28;20647;-85
2022/01/12 06:18:15;;;;;;;155.43;46.10;;;3.60;96.00;;;;;;5053691;28;20210;-85
2022/01/12 06:20:41;;;;;;;155.77;46.00;;;3.50;96.10;;;;;;5055249;28;20528;-85
2022/01/12 06:23:07;;;;;;;161.57;47.00;;;3.50;96.10;;;;;;5054844;28;20172;-85
2022/01/12 06:25:32;;;;;;;175.13;46.20;;;3.50;96.10;;;;;;5054101;28;20196;-85
2022/01/12 06:28:20;;;;;;;148.60;46.47;;;3.50;96.10;;;;;;5053728;28;20180;-85
2022/01/12 06:33:28;;;;;;;187.93;47.23;;;3.50;96.10;;;;;;5054729;28;20646;-85
2022/01/12 06:35:53;;;;;;;197.63;48.77;;;3.50;96.20;;;;;;5053750;28;20195;-85
2022/01/12 06:38:19;;;;;;;181.67;47.40;;;3.50;96.20;;;;;;5054764;28;20204;-85
2022/01/12 06:40:44;;;;;;;162.13;46.97;;;3.50;96.20;;;;;;5053423;28;20187;-85
2022/01/12 06:43:10;;;;;;;181.50;48.47;;;3.60;96.20;;;;;;5053476;28;20180;-86
2022/01/12 06:45:36;;;;;;;174.97;47.33;;;3.60;96.30;;;;;;5053203;28;20196;-85
2022/01/12 06:48:02;;;;;;;181.37;47.40;;;3.60;96.30;;;;;;5053308;28;20176;-85
2022/01/12 06:50:27;;;;;;;171.47;49.93;;;3.60;96.30;;;;;;5054464;28;20182;-85
2022/01/12 06:52:53;;;;;;;161.90;47.03;;;3.60;96.30;;;;;;5053157;28;20175;-86
2022/01/12 06:55:18;;;;;;;162.97;46.67;;;3.60;96.30;;;;;;5054351;28;20210;-86
2022/01/12 06:57:44;;;;;;;169.10;48.10;;;3.60;96.30;;;;;;5052855;28;20203;-85
2022/01/12 07:00:10;;;;;;;175.27;49.27;;;3.60;96.30;;;;;;5053747;28;20258;-85
2022/01/12 07:02:35;;;;;;;176.93;47.77;;;3.60;96.30;;;;;;5053080;28;20172;-85
2022/01/12 07:05:01;;;;;;;180.60;50.63;;;3.70;96.40;;;;;;5052781;28;20191;-85
2022/01/12 07:07:27;;;;;;;195.70;50.27;;;3.70;96.30;;;;;;5052971;28;20176;-85
2022/01/12 07:09:53;;;;;;;188.43;50.20;;;3.70;96.30;;;;;;5052804;28;20176;-85
2022/01/12 07:12:18;;;;;;;179.87;50.00;;;3.70;96.30;;;;;;5052702;28;20653;-85
2022/01/12 07:14:44;;;;;;;186.67;49.80;;;3.70;96.30;;;;;;5053879;28;20646;-85
2022/01/12 07:17:12;;;;;;;178.50;48.70;;;3.60;96.30;;;;;;5054144;28;20679;-85
2022/01/12 07:19:37;;;;;;;182.73;48.63;;;3.70;96.40;;;;;;5052644;28;20648;-85
2022/01/12 07:22:03;;;;;;;175.40;50.17;;;3.70;96.30;;;;;;5052578;28;20274;-85
2022/01/12 07:24:29;;;;;;;172.57;49.20;;;3.70;96.40;;;;;;5053691;28;20192;-85
2022/01/12 07:26:54;;;;;;;169.17;48.40;;;3.70;96.40;;;;;;5052447;28;20168;-85
2022/01/12 07:29:20;;;;;;;163.37;46.70;;;3.70;96.40;;;;;;5052478;28;20168;-85
2022/01/12 07:31:46;;;;;;;164.17;47.93;;;3.70;96.40;;;;;;5052512;28;20651;-85
2022/01/12 07:34:14;;;;;;;164.63;46.93;;;3.70;96.40;;;;;;5052554;28;20178;-85
2022/01/12 07:36:40;;;;;;;168.47;47.57;;;3.70;96.40;;;;;;5052461;28;20179;-85
2022/01/12 07:39:06;;;;;;;169.07;47.80;;;3.70;96.40;;;;;;5053543;28;20184;-85
2022/01/12 07:41:32;;;;;;;167.53;44.97;;;3.70;96.40;;;;;;5053523;28;20640;-85
2022/01/12 07:43:57;;;;;;;177.93;47.17;;;3.70;96.40;;;;;;5052320;28;20178;-84
2022/01/12 07:46:23;;;;;;;172.63;50.07;;;3.70;96.40;;;;;;5052465;28;20656;-85
2022/01/12 07:48:48;;;;;;;183.13;48.33;;;3.70;96.40;;;;;;5053716;28;20211;-85
2022/01/12 07:51:14;;;;;;;184.27;47.60;;;3.70;96.40;;;;;;5053381;28;20168;-85
2022/01/12 07:53:40;;;;;;;191.07;49.13;;;3.70;96.40;;;;;;5053552;28;20649;-85
2022/01/12 07:56:06;;;;;;;182.60;50.53;;;3.70;96.40;;;;;;5052018;28;20269;-84
2022/01/12 07:58:32;;;;;;;164.07;47.63;;;3.70;96.40;;;;;;5053206;28;20193;-85
2022/01/12 08:00:57;;;;;;;182.70;48.23;;;3.70;96.40;;;;;;5051945;28;20322;-85
2022/01/12 08:03:23;;;;;;;170.03;47.50;;;3.70;96.40;;;;;;5052093;28;20189;-85
2022/01/12 08:05:50;;;;;;;176.47;48.23;;;3.70;96.40;;;;;;5051897;28;20192;-85
2022/01/12 08:08:15;;;;;;;205.83;50.30;;;3.70;96.40;;;;;;5051881;28;20211;-85
2022/01/12 08:10:41;;;;;;;179.20;48.80;;;3.70;96.40;;;;;;5053414;28;20203;-85
2022/01/12 08:13:07;;;;;;;183.63;48.53;;;3.70;96.40;;;;;;5052009;28;20226;-85
2022/01/12 08:15:33;;;;;;;193.57;50.77;;;3.60;96.40;;;;;;5052202;28;20211;-85
2022/01/12 08:17:58;;;;;;;192.57;51.33;;;3.70;96.40;;;;;;5053382;28;20191;-85
2022/01/12 08:20:28;;;;;;;177.97;52.13;;;3.70;96.40;;;;;;5053086;28;20175;-85
2022/01/12 08:22:54;;;;;;;162.37;46.33;;;3.70;96.40;;;;;;5051790;28;20255;-85
2022/01/12 08:25:20;;;;;;;174.10;47.67;;;3.70;96.40;;;;;;5053048;28;20184;-85
2022/01/12 08:27:46;;;;;;;161.23;44.60;;;3.70;96.40;;;;;;5055387;28;20226;-85
2022/01/12 08:30:20;;;;;;;178.77;47.80;;;3.70;96.40;;;;;;5056996;28;20540;-85
2022/01/12 08:32:48;;;;;;;166.83;45.37;;;3.70;96.40;;;;;;5055768;28;20529;-85
2022/01/12 08:35:16;;;;;;;171.37;47.27;;;3.70;96.40;;;;;;5055650;28;20195;-85
2022/01/12 08:37:41;;;;;;;160.73;44.70;;;3.70;96.40;;;;;;5057117;28;20200;-85
2022/01/12 08:40:08;;;;;;;167.23;47.07;;;3.70;96.40;;;;;;5056884;28;20172;-85
2022/01/12 08:42:34;;;;;;;178.57;45.93;;;3.80;96.40;;;;;;5055474;28;20176;-85
2022/01/12 08:45:02;;;;;;;164.83;44.83;;;3.80;96.40;;;;;;5055511;28;20807;-85
2022/01/12 08:47:28;;;;;;;165.67;46.07;;;3.80;96.40;;;;;;5055494;28;20172;-85
2022/01/12 08:49:53;;;;;;;144.17;44.00;;;3.90;96.40;;;;;;5055454;28;20176;-85
2022/01/12 08:52:22;;;;;;;142.13;40.97;;;3.90;96.50;;;;;;5055353;28;20199;-85
2022/01/12 08:54:48;;;;;;;154.30;41.60;;;3.90;96.40;;;;;;5055264;28;20202;-85
2022/01/12 08:57:14;;;;;;;164.67;45.83;;;3.90;96.40;;;;;;5055170;28;20294;-85
2022/01/12 08:59:40;;;;;;;162.97;45.93;;;3.90;96.40;;;;;;5055251;28;20223;-85
2022/01/12 09:02:08;;;;;;;159.30;45.67;;;3.90;96.50;;;;;;5055123;28;20233;-85
2022/01/12 09:04:34;;;;;;;163.33;45.13;;;4.00;96.50;;;;;;5056347;28;20214;-84
2022/01/12 09:07:00;;;;;;;166.07;48.67;;;4.00;96.50;;;;;;5055149;28;20180;-85
2022/01/12 09:09:26;;;;;;;172.87;48.30;;;4.00;96.50;;;;;;5056311;28;20179;-85
2022/01/12 09:11:52;;;;;;;167.30;47.27;;;4.10;96.50;;;;;;5054999;28;20706;-85
2022/01/12 09:14:18;;;;;;;165.43;46.47;;;4.10;96.50;;;;;;5056096;28;20188;-85
2022/01/12 09:16:50;;;;;;;160.70;45.10;;;4.10;96.50;;;;;;5054999;28;20169;-85
2022/01/12 09:19:16;;;;;;;162.43;43.40;;;4.10;96.50;;;;;;5054853;28;20169;-85
2022/01/12 09:21:41;;;;;;;169.07;47.47;;;4.20;96.50;;;;;;5054853;28;20184;-85
2022/01/12 09:24:07;;;;;;;166.30;45.03;;;4.10;96.40;;;;;;5055966;28;20211;-84
2022/01/12 09:26:33;;;;;;;161.53;41.23;;;4.20;96.50;;;;;;5056141;28;20176;-85
2022/01/12 09:28:59;;;;;;;158.13;41.83;;;4.20;96.50;;;;;;5055975;28;20205;-85
2022/01/12 09:31:25;;;;;;;151.20;41.10;;;4.20;96.50;;;;;;5054649;28;20199;-85
2022/01/12 09:33:51;;;;;;;134.07;38.57;;;4.30;96.50;;;;;;5054661;28;20649;-85
2022/01/12 09:36:17;;;;;;;134.40;38.63;;;4.30;96.50;;;;;;5054666;28;20198;-85
2022/01/12 09:38:43;;;;;;;126.00;35.67;;;4.30;96.50;;;;;;5053667;28;20204;-85
2022/01/12 09:41:09;;;;;;;128.50;35.83;;;4.30;96.50;;;;;;5054393;28;20171;-84
2022/01/12 09:43:36;;;;;;;104.43;31.33;;;4.30;96.50;;;;;;5055667;28;20596;-85
2022/01/12 09:46:02;;;;;;;99.43;30.93;;;4.30;96.40;;;;;;5055573;28;20183;-85
2022/01/12 09:48:33;;;;;;;87.97;26.77;;;4.40;96.40;;;;;;5054353;28;20175;-85
2022/01/12 09:51:01;;;;;;;90.47;27.00;;;4.40;96.40;;;;;;5054395;28;20259;-85
2022/01/12 09:53:29;;;;;;;88.53;27.67;;;4.50;96.40;;;;;;5054221;28;20181;-85
2022/01/12 09:55:55;;;;;;;92.37;27.53;;;4.50;96.40;;;;;;5054154;28;20197;-85
2022/01/12 09:58:20;;;;;;;100.67;31.40;;;4.60;96.40;;;;;;5055307;28;20192;-85
2022/01/12 10:01:00;;;;;;;98.90;29.50;;;4.60;96.30;;;;;;5055408;28;20172;-85
2022/01/12 10:03:26;;;;;;;91.00;28.60;;;4.70;96.30;;;;;;5055375;28;20528;-84
2022/01/12 10:05:53;;;;;;;91.57;28.47;;;4.70;96.20;;;;;;5054027;28;20197;-85
2022/01/12 10:08:19;;;;;;;87.67;29.10;;;4.70;96.20;;;;;;5055115;28;20648;-84
2022/01/12 10:11:08;;;;;;;93.93;29.67;;;4.70;96.20;;;;;;5054476;28;20654;-85
2022/01/12 10:13:36;;;;;;;74.03;25.87;;;4.70;96.10;;;;;;5055081;28;20295;-85
2022/01/12 10:16:16;;;;;;;82.60;26.40;;;4.70;96.00;;;;;;5053769;28;20214;-85
2022/01/12 10:18:50;;;;;;;85.03;28.60;;;4.60;95.80;;;;;;5054915;28;20187;-85
2022/01/12 10:21:34;;;;;;;91.77;29.23;;;4.60;95.70;;;;;;5053677;28;20179;-85
2022/01/12 10:24:04;;;;;;;82.20;28.97;;;4.70;95.70;;;;;;5053986;28;20266;-84
2022/01/12 10:26:41;;;;;;;81.67;25.70;;;4.80;95.70;;;;;;5054887;28;20165;-85
2022/01/12 10:29:13;;;;;;;82.60;28.70;;;4.90;95.60;;;;;;5053570;28;20161;-85
2022/01/12 10:31:54;;;;;;;83.40;28.27;;;5.00;95.60;;;;;;5053496;28;20172;-85
2022/01/12 10:34:23;;;;;;;67.90;23.90;;;5.10;95.60;;;;;;5054795;28;20200;-85
2022/01/12 10:36:50;;;;;;;70.73;25.47;;;5.10;95.50;;;;;;5053259;28;20647;-86
2022/01/12 10:39:17;;;;;;;71.03;25.70;;;5.20;95.40;;;;;;5054754;28;20545;-85
2022/01/12 10:42:01;;;;;;;73.50;27.33;;;5.30;95.30;;;;;;5053593;28;20172;-85
2022/01/12 10:44:29;;;;;;;85.40;30.33;;;5.30;95.10;;;;;;5053321;28;20258;-85
2022/01/12 10:47:12;;;;;;;83.67;28.80;;;5.30;95.00;;;;;;5053268;28;20640;-85
2022/01/12 10:49:41;;;;;;;70.60;27.33;;;5.30;94.90;;;;;;5052854;28;20160;-85
2022/01/12 10:52:12;;;;;;;89.03;30.20;;;5.30;94.90;;;;;;5053038;28;20341;-86
2022/01/12 10:55:04;;;;;;;77.60;27.97;;;5.40;94.80;;;;;;5053114;28;20199;-85
2022/01/12 10:57:32;;;;;;;73.27;28.23;;;5.40;94.60;;;;;;5054115;28;20682;-85
2022/01/12 11:00:06;;;;;;;64.17;25.50;;;5.40;94.60;;;;;;5053135;28;20649;-85
2022/01/12 11:02:32;;;;;;;69.33;25.40;;;5.40;94.50;;;;;;5053246;28;20198;-85
2022/01/12 11:04:59;;;;;;;67.73;23.80;;;5.50;94.50;;;;;;5052857;28;20202;-85
2022/01/12 11:07:26;;;;;;;60.73;20.70;;;5.60;94.40;;;;;;5052867;28;20187;-85
2022/01/12 11:09:58;;;;;;;67.37;23.37;;;5.80;94.10;;;;;;5052762;28;20185;-85
2022/01/12 11:12:25;;;;;;;56.87;19.50;;;5.90;93.90;;;;;;5053169;28;20175;-85
2022/01/12 11:14:51;;;;;;;61.30;21.00;;;6.00;93.40;;;;;;5080830;22;20696;-89
2022/01/12 11:17:17;;;;;;;55.17;21.43;;;6.20;93.40;;;;;;5057305;28;20212;-89
2022/01/12 11:20:04;;;;;;;55.13;21.37;;;6.20;93.00;;;;;;5057387;28;20262;-89
2022/01/12 11:23:04;;;;;;;51.60;21.97;;;6.20;92.90;;;;;;5075226;28;20619;-89
2022/01/12 11:25:33;;;;;;;48.87;21.43;;;6.30;92.80;;;;;;5057145;28;20190;-89
2022/01/12 11:28:10;;;;;;;49.57;19.57;;;6.30;92.60;;;;;;5056962;28;20182;-89
2022/01/12 11:30:38;;;;;;;42.30;18.90;;;6.50;92.50;;;;;;5056710;28;20183;-90
2022/01/12 11:33:07;;;;;;;43.27;20.23;;;6.60;92.10;;;;;;5057010;28;20304;-89
2022/01/12 11:35:38;;;;;;;47.93;21.50;;;6.50;91.90;;;;;;5075115;28;20194;-89
2022/01/12 11:38:08;;;;;;;45.57;18.17;;;6.50;91.80;;;;;;5056566;28;20206;-89
2022/01/12 11:40:36;;;;;;;48.43;20.13;;;6.50;91.40;;;;;;5056924;28;20659;-89
2022/01/12 11:43:03;;;;;;;54.27;21.37;;;6.50;91.60;;;;;;5056853;28;20176;-89
2022/01/12 11:45:29;;;;;;;50.90;19.87;;;6.40;91.70;;;;;;5056197;28;20198;-89
2022/01/12 11:47:54;;;;;;;55.37;20.87;;;6.30;91.70;;;;;;5057130;28;20187;-89
2022/01/12 11:50:20;;;;;;;52.90;20.47;;;6.30;92.00;;;;;;5056658;28;20658;-88
2022/01/12 11:52:46;;;;;;;42.43;17.10;;;6.30;92.10;;;;;;5056269;28;20178;-89
2022/01/12 11:55:16;;;;;;;41.00;19.13;;;6.30;91.80;;;;;;5056984;28;20202;-89
2022/01/12 11:57:52;;;;;;;44.07;18.43;;;6.30;92.10;;;;;;5074349;28;20269;-89
2022/01/12 12:00:23;;;;;;;47.53;19.23;;;6.40;92.40;;;;;;5074752;28;20245;-89
2022/01/12 12:02:51;;;;;;;49.23;18.60;;;6.40;92.30;;;;;;5056946;28;20160;-89
2022/01/12 12:05:20;;;;;;;29.27;14.83;;;6.30;92.20;;;;;;5056181;28;20240;-89
2022/01/12 12:07:51;;;;;;;43.23;18.13;;;6.30;92.30;;;;;;5074456;28;20178;-88
2022/01/12 12:10:28;;;;;;;51.83;21.63;;;6.20;92.20;;;;;;5056365;28;20182;-89
2022/01/12 12:12:56;;;;;;;46.57;19.43;;;6.10;92.30;;;;;;5056662;28;20221;-89
2022/01/12 12:15:24;;;;;;;47.93;18.50;;;6.10;92.40;;;;;;5055855;28;20211;-88
2022/01/12 12:17:51;;;;;;;53.57;19.80;;;6.10;92.50;;;;;;5073941;28;20198;-89
2022/01/12 12:20:19;;;;;;;53.43;21.90;;;6.10;92.70;;;;;;5056743;28;20639;-90
2022/01/12 12:22:47;;;;;;;50.20;21.03;;;6.00;92.70;;;;;;5074050;28;20714;-91
2022/01/12 12:25:16;;;;;;;41.97;18.43;;;6.00;92.80;;;;;;5056030;28;20198;-89
2022/01/12 12:27:45;;;;;;;54.23;19.57;;;6.00;92.90;;;;;;5056645;28;20251;-90
2022/01/12 12:30:14;;;;;;;63.23;21.63;;;6.00;92.90;;;;;;5055987;28;20333;-89
2022/01/12 12:32:43;;;;;;;43.50;17.90;;;6.10;92.90;;;;;;5056554;28;20268;-89
2022/01/12 12:35:12;;;;;;;43.80;19.07;;;6.10;92.80;;;;;;5074164;28;20203;-89
2022/01/12 12:37:44;;;;;;;47.70;16.50;;;6.10;92.80;;;;;;5056640;28;20199;-90
2022/01/12 12:40:37;;;;;;;48.20;16.10;;;6.00;92.80;;;;;;5057349;28;20174;-89
2022/01/12 12:43:26;;;;;;;39.43;14.37;;;6.10;92.60;;;;;;5044175;28;20183;-90
2022/01/12 12:46:00;;;;;;;40.67;14.33;;;6.20;92.40;;;;;;5056603;28;20261;-90
2022/01/12 12:48:30;;;;;;;33.93;15.10;;;6.20;92.20;;;;;;5056275;28;20171;-90
2022/01/12 12:51:18;;;;;;;39.97;15.30;;;6.10;92.20;;;;;;5056618;28;20210;-90
2022/01/12 12:53:47;;;;;;;31.73;13.27;;;6.10;92.20;;;;;;5055812;28;20170;-90
2022/01/12 12:56:16;;;;;;;45.07;16.67;;;6.10;92.10;;;;;;5055790;28;20671;-90
2022/01/12 12:58:53;;;;;;;34.50;12.90;;;6.10;91.90;;;;;;5055948;28;20206;-90
2022/01/12 13:01:20;;;;;;;33.23;11.73;;;6.10;91.50;;;;;;5055190;28;20166;-90
2022/01/12 13:03:54;;;;;;;29.90;10.10;;;6.10;91.60;;;;;;5072760;28;20665;-90
2022/01/12 13:06:26;;;;;;;27.53;10.77;;;6.10;91.30;;;;;;5054852;28;20657;-90
2022/01/12 13:08:53;;;;;;;28.47;10.00;;;6.20;91.60;;;;;;5072913;28;20155;-90
2022/01/12 13:11:20;;;;;;;42.27;10.73;;;6.30;91.70;;;;;;5055343;28;20185;-89
2022/01/12 13:14:04;;;;;;;32.03;10.33;;;6.30;91.60;;;;;;5058315;28;20202;-90
2022/01/12 13:16:30;;;;;;;31.27;8.50;;;6.40;91.70;;;;;;5060141;28;20217;-89
2022/01/12 13:19:07;;;;;;;33.57;11.27;;;6.50;91.70;;;;;;5077562;28;20205;-89
2022/01/12 13:21:36;;;;;;;27.00;9.73;;;6.60;91.30;;;;;;5059446;28;20167;-89
2022/01/12 13:24:03;;;;;;;34.63;11.33;;;6.50;90.80;;;;;;5059319;28;20179;-89
2022/01/12 13:26:32;;;;;;;33.50;10.80;;;6.40;90.90;;;;;;5059626;28;20194;-89
2022/01/12 13:29:00;;;;;;;34.93;11.67;;;6.30;91.00;;;;;;5059668;28;20186;-89
2022/01/12 13:31:27;;;;;;;28.67;11.47;;;6.30;91.10;;;;;;5058938;28;20182;-90
2022/01/12 13:33:53;;;;;;;28.47;10.67;;;6.30;91.10;;;;;;5060135;28;20178;-89
2022/01/12 13:36:21;;;;;;;35.00;10.73;;;6.30;91.30;;;;;;5059275;28;20195;-90
2022/01/12 13:38:55;;;;;;;31.90;11.27;;;6.30;91.00;;;;;;5059536;28;20199;-89
2022/01/12 13:41:25;;;;;;;36.93;10.30;;;6.20;90.90;;;;;;5077926;28;20625;-89
2022/01/12 13:44:04;;;;;;;33.67;11.17;;;6.20;90.70;;;;;;5059552;28;20262;-90
2022/01/12 13:46:33;;;;;;;30.57;10.17;;;6.20;90.90;;;;;;5059692;28;20202;-90
2022/01/12 13:51:52;;;;;;;28.33;11.67;;;6.10;91.20;;;;;;5077653;28;20159;-90
2022/01/12 13:54:18;;;;;;;36.10;12.27;;;6.10;91.50;;;;;;5059495;28;20623;-91
2022/01/12 13:56:53;;;;;;;29.67;13.07;;;6.30;91.50;;;;;;5059331;28;20178;-90
2022/01/12 13:59:19;;;;;;;37.20;15.73;;;6.30;91.20;;;;;;5059018;28;20213;-90
2022/01/12 14:01:46;;;;;;;30.37;14.17;;;6.30;90.90;;;;;;5059287;28;20248;-90
2022/01/12 14:04:23;;;;;;;31.30;15.33;;;6.20;90.70;;;;;;5059539;28;20174;-90